Time;durP1;ratioP1;P1;durP2;ratioP2;P2;SDS_P1;SDS_P2;PMS_P1;PMS_P2;Temp;Humidity;BMP_temperature;BMP_pressure;BME280_temperature;BME280_humidity;BME280_pressure;Samples;Min_cycle;Max_cycle;Signal;HPM_P1;HPM_P2
2022/10/31 00:02:38;;;;;;;35.08;18.88;;;12.50;99.90;;;;;;6171430;22;20021;-90
2022/10/31 00:09:30;;;;;;;35.60;19.15;;;12.30;99.90;;;;;;6184010;23;20020;-90
2022/10/31 00:12:01;;;;;;;34.63;19.02;;;12.50;99.90;;;;;;6185445;23;20021;-90
2022/10/31 00:15:17;;;;;;;35.67;19.83;;;13.30;99.90;;;;;;6215236;22;20031;-90
2022/10/31 00:17:50;;;;;;;34.70;19.50;;;12.50;99.90;;;;;;6161289;22;20027;31
2022/10/31 00:24:22;;;;;;;35.00;18.95;;;12.40;99.90;;;;;;6187916;23;20103;-91
2022/10/31 00:26:53;;;;;;;32.92;19.08;;;12.50;99.90;;;;;;6188359;23;20020;-90
2022/10/31 00:29:25;;;;;;;37.50;19.02;;;13.00;99.90;;;;;;6189820;23;20017;-90
2022/10/31 00:34:44;;;;;;;36.88;19.15;;;12.40;99.90;;;;;;6164345;22;20107;-91
2022/10/31 00:37:36;;;;;;;35.90;19.50;;;11.60;99.90;;;;;;6163388;22;20471;-90
2022/10/31 00:43:00;;;;;;;37.25;19.15;;;12.20;99.90;;;;;;6069750;23;20023;-90
2022/10/31 00:45:31;;;;;;;42.20;20.55;;;12.70;99.90;;;;;;6073076;23;20378;-90
2022/10/31 00:48:00;;;;;;;37.47;21.23;;;12.00;99.90;;;;;;6099092;23;20056;-90
2022/10/31 00:54:06;;;;;;;37.65;20.98;;;11.90;99.90;;;;;;6182595;23;20025;-89
2022/10/31 00:56:35;;;;;;;38.72;20.98;;;12.00;99.90;;;;;;6183735;23;20021;-90
2022/10/31 00:59:06;;;;;;;38.80;20.58;;;12.20;99.90;;;;;;6185314;23;20077;-90
2022/10/31 01:01:38;;;;;;;39.15;21.02;;;11.90;99.90;;;;;;6184703;23;20013;-90
2022/10/31 01:04:09;;;;;;;43.22;21.27;;;13.30;99.90;;;;;;6185147;23;20088;-90
2022/10/31 01:06:35;;;;;;;40.58;21.90;;;13.30;99.90;;;;;;6202305;23;20005;-89
2022/10/31 01:09:07;;;;;;;37.17;20.88;;;12.00;99.90;;;;;;6192553;23;20020;-90
2022/10/31 01:11:33;;;;;;;40.78;21.10;;;13.30;99.90;;;;;;6188974;23;20027;-90
2022/10/31 01:13:59;;;;;;;41.40;21.05;;;12.80;99.90;;;;;;6168652;22;20001;-90
2022/10/31 01:19:29;;;;;;;43.17;21.10;;;12.10;99.90;;;;;;6154646;23;20076;-90
2022/10/31 01:21:58;;;;;;;34.03;20.40;;;12.10;99.90;;;;;;6202083;22;20318;-90
2022/10/31 01:28:05;;;;;;;37.33;21.08;;;12.00;99.90;;;;;;6188715;23;20051;-90
2022/10/31 01:30:32;;;;;;;42.50;23.10;;;12.70;99.90;;;;;;6189887;23;20008;-90
2022/10/31 01:35:58;;;;;;;38.10;21.73;;;12.00;99.90;;;;;;6159081;22;20408;-89
2022/10/31 01:38:26;;;;;;;36.85;21.08;;;12.00;99.90;;;;;;6207391;22;20576;-90
2022/10/31 01:40:54;;;;;;;38.13;20.63;;;12.80;99.90;;;;;;6189641;23;20013;-90
2022/10/31 01:43:59;;;;;;;34.72;19.92;;;11.70;99.90;;;;;;6226424;22;20084;-90
2022/10/31 01:46:52;;;;;;;37.22;18.65;;;12.10;99.90;;;;;;6216039;23;20453;-90
2022/10/31 01:52:54;;;;;;;33.38;18.58;;;11.80;99.90;;;;;;6189343;23;20032;-90
2022/10/31 01:58:52;;;;;;;39.03;18.92;;;13.10;99.90;;;;;;6215973;23;20028;-89
2022/10/31 02:01:25;;;;;;;35.17;19.23;;;11.80;99.90;;;;;;6215845;23;20029;-89
2022/10/31 02:04:16;;;;;;;34.40;18.80;;;12.70;99.90;;;;;;6188983;23;20023;-90
2022/10/31 02:07:15;;;;;;;35.70;19.40;;;11.50;99.90;;;;;;6190738;23;20048;-90
2022/10/31 02:10:04;;;;;;;33.22;18.30;;;11.60;99.90;;;;;;6170946;22;20025;-90
2022/10/31 02:12:40;;;;;;;37.13;18.50;;;11.40;99.90;;;;;;6196925;22;20056;-90
2022/10/31 02:15:10;;;;;;;37.00;19.38;;;11.40;99.90;;;;;;6171366;22;20469;-91
2022/10/31 02:21:04;;;;;;;35.05;18.42;;;11.30;99.90;;;;;;6186198;22;20386;-90
2022/10/31 02:23:35;;;;;;;33.78;18.25;;;10.90;99.90;;;;;;6215954;23;20093;-90
2022/10/31 02:26:56;;;;;;;35.72;17.75;;;11.00;99.90;;;;;;6215791;23;20017;-90
2022/10/31 02:30:11;;;;;;;33.53;17.80;;;11.00;99.90;;;;;;6216119;23;20028;-89
2022/10/31 02:39:59;;;;;;;34.45;18.50;;;12.00;99.90;;;;;;6185078;23;20133;-90
2022/10/31 02:43:04;;;;;;;33.17;17.48;;;10.90;99.90;;;;;;6185874;23;20033;-89
2022/10/31 03:01:59;;;;;;;35.88;17.83;;;10.50;99.90;;;;;;6186952;23;20020;-89
2022/10/31 03:05:16;;;;;;;;;;;;;;;;;;;;;
2022/10/31 03:08:36;;;;;;;35.80;16.73;;;10.30;99.90;;;;;;6105582;23;20072;-90
2022/10/31 03:11:07;;;;;;;34.70;17.77;;;9.50;99.90;;;;;;6216546;23;20344;-90
2022/10/31 03:16:38;;;;;;;32.40;17.02;;;10.20;99.90;;;;;;6215457;22;20074;-90
2022/10/31 03:30:27;;;;;;;31.73;16.73;;;9.90;99.90;;;;;;6189497;22;20032;-90
2022/10/31 03:33:06;;;;;;;37.75;17.15;;;9.60;99.90;;;;;;6187984;23;20019;-90
2022/10/31 04:39:33;;;;;;;27.75;15.07;;;8.50;99.90;;;;;;6214732;23;20040;-90
2022/10/31 04:48:46;;;;;;;;;;;;;;;;;;;;;
2022/10/31 04:58:43;;;;;;;29.10;13.93;;;8.30;99.90;;;;;;6007789;23;20024;-92
2022/10/31 05:09:45;;;;;;;;;;;;;;;;;;;;;
2022/10/31 06:42:59;;;;;;;33.10;18.13;;;7.40;99.90;;;;;;6127059;23;20047;-91
2022/10/31 06:45:24;;;;;;;34.17;19.00;;;8.60;99.90;;;;;;6158836;23;20048;-89
2022/10/31 06:47:54;;;;;;;32.85;17.48;;;7.20;99.90;;;;;;6159614;23;20021;-90
2022/10/31 06:50:31;;;;;;;31.65;17.45;;;8.20;99.90;;;;;;6159371;23;20017;-91
2022/10/31 06:53:00;;;;;;;34.47;19.23;;;7.20;99.90;;;;;;6159510;23;20445;-88
2022/10/31 06:55:35;;;;;;;33.45;16.80;;;7.40;99.90;;;;;;6159055;23;20051;-87
2022/10/31 06:58:01;;;;;;;31.17;17.55;;;7.40;99.90;;;;;;6158978;23;20017;-87
2022/10/31 07:00:38;;;;;;;30.02;17.20;;;7.40;99.90;;;;;;6157994;23;20128;-88
2022/10/31 07:03:55;;;;;;;34.47;18.60;;;7.30;99.90;;;;;;6157709;22;20016;-87
2022/10/31 07:06:24;;;;;;;31.35;17.30;;;7.50;99.90;;;;;;6193246;23;20533;-87
2022/10/31 07:08:59;;;;;;;32.80;17.38;;;8.40;99.90;;;;;;6185983;23;20017;-88
2022/10/31 07:11:28;;;;;;;30.90;17.08;;;7.60;99.90;;;;;;6184331;23;20433;-88
2022/10/31 07:14:02;;;;;;;31.52;17.05;;;8.00;99.90;;;;;;6185165;23;20021;-90
2022/10/31 07:16:30;;;;;;;31.70;17.05;;;6.90;99.90;;;;;;6182752;23;20021;-86
2022/10/31 07:19:10;;;;;;;35.45;18.15;;;7.60;99.90;;;;;;6183250;23;20018;-86
2022/10/31 07:24:23;;;;;;;40.92;19.63;;;7.60;99.90;;;;;;6184251;22;20020;-86
2022/10/31 07:26:55;;;;;;;38.50;19.93;;;7.60;99.90;;;;;;6181937;23;20024;-86
2022/10/31 07:29:26;;;;;;;38.47;21.73;;;7.80;99.90;;;;;;6182687;23;20028;-85
2022/10/31 07:32:01;;;;;;;40.13;21.77;;;7.50;99.90;;;;;;6183138;23;20092;-85
2022/10/31 07:34:33;;;;;;;53.55;22.98;;;8.80;99.90;;;;;;6182442;23;20382;-85
2022/10/31 07:37:05;;;;;;;115.33;30.47;;;7.80;99.90;;;;;;6185077;23;20472;-86
2022/10/31 07:39:36;;;;;;;118.95;29.15;;;8.40;99.90;;;;;;6184721;23;20388;-85
2022/10/31 07:42:08;;;;;;;101.33;30.43;;;7.30;99.90;;;;;;6195358;23;20024;-85
2022/10/31 07:44:46;;;;;;;364.02;43.38;;;9.50;99.90;;;;;;6184640;23;20115;-85
2022/10/31 07:47:17;;;;;;;100.35;29.58;;;7.60;99.90;;;;;;6182050;23;20017;-86
2022/10/31 07:49:54;;;;;;;169.32;34.55;;;7.90;99.90;;;;;;6182311;23;20382;-85
2022/10/31 07:52:29;;;;;;;324.08;40.38;;;8.30;99.90;;;;;;6187039;23;20028;-85
2022/10/31 07:55:00;;;;;;;184.77;31.70;;;9.00;99.90;;;;;;6214532;23;20016;-87
2022/10/31 07:57:36;;;;;;;305.60;42.17;;;7.70;99.90;;;;;;6187886;23;20020;-85
2022/10/31 08:00:08;;;;;;;184.73;35.47;;;7.90;99.90;;;;;;6188465;23;20043;-85
2022/10/31 08:02:33;;;;;;;254.90;40.50;;;8.70;99.90;;;;;;6187913;23;20055;-85
2022/10/31 08:05:02;;;;;;;178.05;37.55;;;9.10;99.90;;;;;;6188138;23;20437;-85
2022/10/31 08:07:28;;;;;;;151.35;36.22;;;8.90;99.90;;;;;;6187601;23;20020;-85
2022/10/31 08:09:55;;;;;;;153.02;39.17;;;9.10;99.90;;;;;;6187208;23;20143;-85
2022/10/31 08:12:20;;;;;;;107.65;36.28;;;9.20;99.90;;;;;;6214673;23;20017;-85
2022/10/31 08:14:46;;;;;;;75.07;32.80;;;9.30;99.90;;;;;;6214842;23;20017;-86
2022/10/31 08:17:12;;;;;;;81.20;33.05;;;9.40;99.90;;;;;;6205305;23;20017;-85
2022/10/31 08:19:37;;;;;;;100.55;37.45;;;9.50;99.90;;;;;;6220602;23;20344;-85
2022/10/31 08:22:03;;;;;;;84.82;34.85;;;9.60;99.90;;;;;;6213969;23;20035;-85
2022/10/31 08:24:28;;;;;;;82.03;36.30;;;9.70;99.90;;;;;;6187286;23;20021;-85
2022/10/31 08:26:54;;;;;;;88.28;37.85;;;9.80;99.90;;;;;;6215142;23;20456;-85
2022/10/31 08:29:20;;;;;;;84.82;36.65;;;10.40;99.90;;;;;;6187721;23;20013;-85
2022/10/31 08:31:45;;;;;;;83.43;36.03;;;9.90;99.90;;;;;;6188757;23;20024;-85
2022/10/31 08:34:11;;;;;;;83.00;35.65;;;10.00;99.90;;;;;;6189653;23;20031;-85
2022/10/31 08:36:37;;;;;;;82.60;37.42;;;10.10;99.90;;;;;;6216958;23;20031;-85
2022/10/31 08:39:02;;;;;;;83.97;37.58;;;10.20;99.90;;;;;;6190020;23;20016;-85
2022/10/31 08:41:28;;;;;;;81.93;36.90;;;10.30;99.90;;;;;;6189440;23;20016;-84
2022/10/31 08:43:54;;;;;;;80.80;37.97;;;10.40;99.90;;;;;;6189105;23;20013;-84
2022/10/31 08:46:20;;;;;;;84.90;39.17;;;11.00;99.90;;;;;;6189777;23;20015;-85
2022/10/31 08:48:48;;;;;;;80.03;38.83;;;10.60;99.90;;;;;;6217036;23;20016;-85
2022/10/31 08:51:14;;;;;;;82.80;39.55;;;10.70;99.90;;;;;;6191222;23;20020;-85
2022/10/31 08:53:40;;;;;;;85.13;40.10;;;10.90;99.90;;;;;;6227303;23;20470;-85
2022/10/31 08:56:05;;;;;;;80.95;38.92;;;11.10;99.90;;;;;;6216593;23;20017;-85
2022/10/31 08:58:31;;;;;;;76.55;38.22;;;11.20;99.90;;;;;;6189258;23;20095;-85
2022/10/31 09:00:59;;;;;;;82.95;40.20;;;11.40;99.90;;;;;;6190015;23;20056;-85
2022/10/31 09:03:27;;;;;;;78.88;37.85;;;11.50;99.90;;;;;;6189196;23;20024;-85
2022/10/31 09:06:02;;;;;;;70.10;36.58;;;11.80;99.90;;;;;;6189306;23;20104;-86
2022/10/31 09:08:32;;;;;;;72.43;36.60;;;12.50;99.90;;;;;;6189666;23;20031;-86
2022/10/31 09:10:58;;;;;;;65.47;34.13;;;12.30;99.90;;;;;;6216562;23;20020;-86
2022/10/31 09:13:24;;;;;;;63.35;34.20;;;12.70;99.90;;;;;;6188523;23;20016;-86
2022/10/31 09:15:50;;;;;;;65.50;34.15;;;12.00;99.90;;;;;;6189507;23;20349;-86
2022/10/31 09:18:19;;;;;;;60.67;32.35;;;12.10;99.90;;;;;;6215571;23;20013;-86
2022/10/31 09:20:46;;;;;;;59.25;31.88;;;12.20;99.90;;;;;;6187382;22;20446;-86
2022/10/31 09:23:18;;;;;;;62.40;32.58;;;13.20;99.90;;;;;;6188630;23;20012;-86
2022/10/31 09:26:01;;;;;;;59.38;30.33;;;13.50;99.90;;;;;;6215986;23;20017;-86
2022/10/31 09:28:26;;;;;;;53.75;30.10;;;12.40;99.90;;;;;;6191150;23;20036;-86
2022/10/31 09:31:14;;;;;;;59.85;29.88;;;11.70;99.90;;;;;;6219693;23;20512;-86
2022/10/31 09:33:48;;;;;;;54.00;28.98;;;12.50;99.90;;;;;;6216211;23;20452;-86
2022/10/31 09:36:14;;;;;;;53.08;29.63;;;12.50;99.90;;;;;;6216193;23;20110;-86
2022/10/31 09:38:45;;;;;;;57.25;29.50;;;13.90;99.90;;;;;;6215885;23;20021;-85
2022/10/31 09:50:36;;;;;;;46.05;24.88;;;12.60;99.90;;;;;;6216381;23;20017;-86
2022/10/31 09:53:33;;;;;;;46.17;25.58;;;12.80;99.90;;;;;;6189379;23;20013;-86
2022/10/31 09:56:08;;;;;;;42.40;23.58;;;13.80;99.90;;;;;;6145130;23;20095;-86
2022/10/31 09:58:42;;;;;;;38.92;23.00;;;12.90;99.90;;;;;;6188865;23;20024;-86
2022/10/31 10:01:32;;;;;;;39.70;22.90;;;13.10;99.90;;;;;;6188675;23;20512;-86
2022/10/31 10:04:05;;;;;;;38.90;21.15;;;13.20;99.90;;;;;;6193141;23;20067;-86
2022/10/31 10:06:35;;;;;;;33.65;20.77;;;13.30;99.90;;;;;;6223310;23;20035;-85
2022/10/31 10:09:02;;;;;;;36.63;20.70;;;13.30;99.90;;;;;;6188695;23;20437;-86
2022/10/31 10:11:56;;;;;;;34.40;21.05;;;13.40;99.90;;;;;;6187910;23;20500;-86
2022/10/31 10:14:34;;;;;;;;;;;13.40;99.90;;;;;;6186912;23;20047;-86
2022/10/31 10:17:16;;;;;;;36.13;21.05;;;13.40;99.90;;;;;;6188212;23;19915;-85
2022/10/31 10:22:53;;;;;;;36.03;21.17;;;13.60;99.90;;;;;;6185102;23;20452;-86
2022/10/31 10:28:49;;;;;;;34.73;20.13;;;14.40;99.90;;;;;;6187513;23;20017;-90
2022/10/31 10:31:26;;;;;;;33.42;20.85;;;13.90;99.90;;;;;;6159310;23;20012;-87
2022/10/31 10:34:18;;;;;;;38.08;21.15;;;14.30;99.90;;;;;;6185941;23;20045;-88
2022/10/31 10:37:27;;;;;;;33.17;19.10;;;14.00;99.90;;;;;;6184926;23;20049;-88
2022/10/31 10:40:28;;;;;;;31.88;18.55;;;14.20;99.90;;;;;;6166334;23;20023;-86
2022/10/31 10:43:31;;;;;;;30.50;18.90;;;14.20;99.90;;;;;;6181244;23;20075;-86
2022/10/31 10:49:48;;;;;;;31.63;18.88;;;14.30;99.90;;;;;;6185149;23;20017;-86
2022/10/31 10:53:01;;;;;;;27.50;17.60;;;14.40;99.90;;;;;;6184133;23;20441;-84
2022/10/31 10:55:43;;;;;;;27.42;16.83;;;14.50;99.90;;;;;;6039312;23;20023;-85
2022/10/31 10:58:10;;;;;;;30.45;16.27;;;15.50;99.90;;;;;;6064466;23;20050;-85
2022/10/31 11:00:46;;;;;;;27.98;16.73;;;15.00;99.90;;;;;;6041243;23;20023;-85
2022/10/31 11:03:16;;;;;;;26.77;16.27;;;14.50;99.90;;;;;;6154133;22;20467;-85
2022/10/31 11:05:51;;;;;;;26.58;15.77;;;15.50;99.90;;;;;;6214696;23;20306;-85
2022/10/31 11:08:45;;;;;;;26.10;14.35;;;14.60;99.90;;;;;;6215110;23;20051;-85
2022/10/31 11:11:30;;;;;;;23.73;13.13;;;14.70;99.90;;;;;;6187478;23;20380;-85
2022/10/31 11:14:27;;;;;;;24.67;13.82;;;14.70;99.90;;;;;;6216308;23;20270;-87
2022/10/31 11:17:28;;;;;;;25.63;15.00;;;14.90;99.90;;;;;;6228597;23;20020;-87
2022/10/31 11:20:32;;;;;;;27.98;14.45;;;15.60;99.90;;;;;;6215359;23;20020;-87
2022/10/31 11:23:38;;;;;;;24.08;13.35;;;14.90;99.90;;;;;;6187824;23;20015;-87
2022/10/31 11:26:20;;;;;;;23.92;13.55;;;14.90;99.90;;;;;;6155589;23;20020;-88
2022/10/31 11:28:59;;;;;;;24.13;13.43;;;16.20;99.90;;;;;;6188756;23;20013;-86
2022/10/31 11:31:26;;;;;;;24.35;13.00;;;15.00;99.90;;;;;;6187773;23;20025;-88
2022/10/31 11:34:04;;;;;;;20.67;12.40;;;15.90;99.90;;;;;;6214555;23;20059;-88
2022/10/31 11:36:35;;;;;;;24.67;12.77;;;15.00;99.90;;;;;;6214782;23;20016;-88
2022/10/31 11:39:04;;;;;;;23.17;12.82;;;15.70;99.90;;;;;;6215384;23;20013;-88
2022/10/31 11:41:38;;;;;;;22.77;12.35;;;14.90;99.90;;;;;;6213871;23;20452;-88
2022/10/31 11:44:32;;;;;;;21.52;13.00;;;15.80;99.90;;;;;;6188258;23;20487;-87
2022/10/31 11:47:14;;;;;;;23.90;13.48;;;14.90;99.90;;;;;;6214763;23;20306;-91
2022/10/31 11:49:49;;;;;;;23.67;13.63;;;14.30;99.90;;;;;;6215812;23;20032;-89
2022/10/31 11:52:31;;;;;;;27.08;14.32;;;15.60;99.90;;;;;;6197133;22;20004;-93
2022/10/31 11:55:03;;;;;;;23.38;13.55;;;15.10;99.90;;;;;;6230713;22;20021;-94
2022/10/31 11:57:30;;;;;;;26.42;13.60;;;15.20;99.90;;;;;;6182983;22;20044;-95
2022/10/31 11:59:59;;;;;;;20.42;12.45;;;16.10;99.90;;;;;;6184383;23;20389;-95
2022/10/31 12:02:27;;;;;;;25.45;13.38;;;16.40;99.90;;;;;;6171030;22;20349;-91
2022/10/31 12:05:22;;;;;;;24.80;12.70;;;15.50;99.90;;;;;;6185451;23;20028;-93
2022/10/31 12:07:56;;;;;;;21.25;12.25;;;15.40;99.90;;;;;;6194688;22;20024;-92
2022/10/31 12:10:52;;;;;;;22.73;11.98;;;15.30;99.90;;;;;;6215239;23;20031;-92
2022/10/31 12:13:34;;;;;;;21.42;11.60;;;15.30;99.90;;;;;;6186755;23;20013;-90
2022/10/31 12:16:53;;;;;;;19.48;10.75;;;16.40;99.90;;;;;;6215201;23;20016;-93
2022/10/31 12:20:25;;;;;;;19.13;10.50;;;15.30;99.90;;;;;;6181267;23;20285;-92
2022/10/31 12:23:33;;;;;;;18.88;10.18;;;15.30;99.90;;;;;;6174732;23;20277;-92
2022/10/31 12:26:04;;;;;;;17.58;10.10;;;15.40;99.90;;;;;;6153703;23;20363;-92
2022/10/31 12:29:08;;;;;;;19.42;9.63;;;16.70;99.90;;;;;;6171344;22;20020;-91
2022/10/31 12:32:00;;;;;;;19.63;9.47;;;15.50;99.90;;;;;;6189536;23;20021;-91
2022/10/31 12:41:12;;;;;;;19.15;9.82;;;15.70;99.90;;;;;;6188104;23;20017;-91
2022/10/31 12:44:20;;;;;;;16.48;8.63;;;15.80;99.90;;;;;;6187424;23;20028;-90
2022/10/31 12:51:23;;;;;;;16.02;7.30;;;15.90;99.90;;;;;;6189632;22;20020;-91
2022/10/31 12:54:17;;;;;;;16.63;7.63;;;16.20;99.90;;;;;;6214024;22;20028;-92
2022/10/31 12:57:42;;;;;;;14.55;7.07;;;16.50;99.90;;;;;;6170095;22;20048;-91
2022/10/31 13:00:18;;;;;;;;;;;16.20;99.90;;;;;;6139287;22;20480;-91
2022/10/31 13:03:13;;;;;;;16.65;7.38;;;16.70;99.90;;;;;;6158254;23;19931;-91
2022/10/31 13:05:45;;;;;;;15.25;7.93;;;16.70;99.90;;;;;;6162246;23;20023;-91
2022/10/31 13:08:38;;;;;;;13.90;7.65;;;18.00;99.90;;;;;;6157674;23;20464;-91
2022/10/31 13:11:18;;;;;;;14.45;7.40;;;17.00;99.90;;;;;;6184457;23;20021;-91
2022/10/31 13:13:47;;;;;;;15.35;6.85;;;17.50;99.90;;;;;;6158014;23;20024;-91
2022/10/31 13:16:20;;;;;;;15.05;7.55;;;18.10;99.90;;;;;;6204768;22;20468;-92
2022/10/31 13:19:19;;;;;;;;;;;18.00;99.90;;;;;;6189243;23;20021;-91
2022/10/31 13:26:43;;;;;;;13.95;6.05;;;16.20;99.90;;;;;;6183954;23;20017;-93
2022/10/31 13:29:33;;;;;;;12.40;5.70;;;16.50;99.90;;;;;;6186184;23;20017;-92
2022/10/31 13:32:10;;;;;;;13.20;6.47;;;16.50;99.90;;;;;;6185467;23;20024;-92
2022/10/31 13:35:10;;;;;;;13.93;6.75;;;16.40;99.90;;;;;;6185105;23;20016;-92
2022/10/31 13:37:44;;;;;;;12.80;6.15;;;16.20;99.90;;;;;;6186802;23;20511;-95
2022/10/31 13:40:41;;;;;;;;;;;16.30;99.90;;;;;;6186026;23;20391;-92
2022/10/31 13:43:26;;;;;;;13.25;6.53;;;16.10;99.90;;;;;;6190956;23;20677;-95
2022/10/31 13:45:54;;;;;;;14.25;6.30;;;17.00;99.90;;;;;;6187662;23;20017;-93
2022/10/31 13:48:36;;;;;;;12.57;6.65;;;16.10;99.90;;;;;;6191600;23;20028;-93
2022/10/31 13:51:07;;;;;;;14.98;7.05;;;16.00;99.90;;;;;;6188131;23;20518;-87
2022/10/31 14:08:51;;;;;;;13.30;6.00;;;15.80;99.90;;;;;;6265164;23;20019;-96
2022/10/31 14:12:18;;;;;;;12.93;6.55;;;15.90;99.90;;;;;;6082406;23;20030;-96
2022/10/31 14:21:50;;;;;;;12.40;5.90;;;15.70;99.90;;;;;;6227266;22;20025;-94
2022/10/31 14:24:48;;;;;;;13.00;6.53;;;15.40;99.90;;;;;;6200118;23;20401;-95
2022/10/31 14:27:46;;;;;;;15.57;6.78;;;15.10;99.90;;;;;;6179700;23;20392;-93
2022/10/31 14:30:18;;;;;;;15.30;6.72;;;15.50;99.90;;;;;;6194920;23;20099;-95
2022/10/31 14:33:13;;;;;;;15.32;7.18;;;15.50;99.90;;;;;;6197523;23;20011;-94
2022/10/31 14:36:04;;;;;;;14.10;7.40;;;15.80;99.90;;;;;;6217028;22;20023;-89
2022/10/31 14:38:58;;;;;;;14.85;7.47;;;15.20;99.90;;;;;;6189387;23;20448;-91
2022/10/31 14:41:48;;;;;;;18.40;8.68;;;15.00;99.90;;;;;;6215162;23;20374;-89
2022/10/31 14:44:52;;;;;;;15.48;7.88;;;15.40;99.90;;;;;;6188180;23;20345;-88
2022/10/31 14:47:56;;;;;;;15.90;8.07;;;15.40;99.90;;;;;;6188597;23;20345;-89
2022/10/31 14:50:24;;;;;;;17.45;8.77;;;15.30;99.90;;;;;;6188250;23;20017;-88
2022/10/31 14:52:56;;;;;;;18.30;8.93;;;15.00;99.90;;;;;;6194008;23;20024;-89
2022/10/31 14:55:24;;;;;;;15.98;8.23;;;15.60;99.90;;;;;;6200055;23;20025;-89
2022/10/31 14:58:15;;;;;;;18.17;8.75;;;16.00;99.90;;;;;;6215579;23;20024;-89
2022/10/31 15:00:43;;;;;;;15.98;8.55;;;15.80;99.90;;;;;;6184030;23;20096;-89
2022/10/31 15:03:28;;;;;;;18.05;8.50;;;15.00;99.90;;;;;;6183658;23;20024;-89
2022/10/31 15:05:56;;;;;;;16.60;8.48;;;15.00;99.90;;;;;;6185349;23;20393;-90
2022/10/31 15:08:48;;;;;;;16.10;8.05;;;15.60;99.90;;;;;;6183495;23;20349;-89
2022/10/31 15:11:22;;;;;;;17.35;8.73;;;15.00;99.90;;;;;;6182775;23;20105;-90
2022/10/31 15:14:40;;;;;;;15.60;8.70;;;14.90;99.90;;;;;;6183940;23;20025;-89
2022/10/31 15:17:25;;;;;;;16.55;8.80;;;15.00;99.90;;;;;;6167483;23;20349;-90
2022/10/31 15:19:56;;;;;;;16.95;8.73;;;14.90;99.90;;;;;;6185148;23;20017;-90
2022/10/31 15:22:50;;;;;;;16.20;8.90;;;15.60;99.90;;;;;;6183611;23;20068;-95
2022/10/31 15:25:24;;;;;;;16.67;9.73;;;14.80;99.90;;;;;;6183999;23;20021;-92
2022/10/31 15:28:45;;;;;;;17.15;9.77;;;14.80;99.90;;;;;;6186049;23;20043;-93
2022/10/31 15:32:00;;;;;;;19.45;10.23;;;14.70;99.90;;;;;;6144706;23;20025;-89
2022/10/31 15:34:38;;;;;;;17.52;10.15;;;14.70;99.90;;;;;;6071850;23;20164;-94
2022/10/31 15:37:09;;;;;;;20.33;10.55;;;15.50;99.90;;;;;;6183644;23;20021;-91
2022/10/31 15:39:35;;;;;;;17.90;10.15;;;15.80;99.90;;;;;;6182829;23;20035;-90
2022/10/31 15:42:39;;;;;;;18.77;10.27;;;15.80;99.90;;;;;;6185592;23;20021;-92
2022/10/31 15:45:28;;;;;;;19.08;10.43;;;14.10;99.90;;;;;;6185558;23;20013;-93
2022/10/31 15:48:16;;;;;;;19.45;10.60;;;14.50;99.90;;;;;;6181410;23;20493;-92
2022/10/31 15:51:02;;;;;;;21.60;11.43;;;14.40;99.90;;;;;;6184820;23;20040;-93
2022/10/31 15:53:53;;;;;;;20.42;11.15;;;14.40;99.90;;;;;;6185349;23;20028;-96
2022/10/31 15:56:43;;;;;;;21.80;11.27;;;14.30;99.90;;;;;;6184597;23;20024;-96
2022/10/31 15:59:35;;;;;;;19.15;11.27;;;14.30;99.90;;;;;;6186986;23;20013;-94
2022/10/31 16:02:08;;;;;;;20.83;11.90;;;14.20;99.90;;;;;;6186177;23;20091;-93
2022/10/31 16:04:33;;;;;;;20.00;11.63;;;14.70;99.90;;;;;;6185738;23;20009;-93
2022/10/31 16:07:13;;;;;;;19.80;11.57;;;14.20;99.90;;;;;;6194123;23;20376;-93
2022/10/31 16:10:04;;;;;;;21.92;12.63;;;13.70;99.90;;;;;;6184789;23;20023;-92
2022/10/31 16:12:42;;;;;;;23.42;12.50;;;14.10;99.90;;;;;;6181763;23;20021;-90
2022/10/31 16:15:57;;;;;;;;;;;;;;;;;;;;;
2022/10/31 16:18:40;;;;;;;22.65;13.27;;;13.80;99.90;;;;;;6184132;23;20461;-88
2022/10/31 16:21:07;;;;;;;24.85;14.48;;;15.00;99.90;;;;;;6157320;23;20098;-88
2022/10/31 16:23:39;;;;;;;23.70;14.25;;;15.40;99.90;;;;;;6182270;23;20017;-88
2022/10/31 16:26:09;;;;;;;25.10;14.68;;;14.00;99.90;;;;;;6184501;23;20021;-88
2022/10/31 16:29:09;;;;;;;25.23;14.60;;;14.80;99.90;;;;;;6184494;23;20010;-87
2022/10/31 16:31:40;;;;;;;24.80;15.30;;;13.90;99.90;;;;;;6184600;23;20092;-87
2022/10/31 16:34:15;;;;;;;24.40;14.70;;;13.80;99.90;;;;;;6184787;23;20012;-85
2022/10/31 16:36:41;;;;;;;26.80;15.82;;;14.70;99.90;;;;;;6182034;23;20496;-86
2022/10/31 16:39:13;;;;;;;28.60;15.63;;;14.50;99.90;;;;;;6184289;23;20091;-84
2022/10/31 16:41:54;;;;;;;28.00;16.35;;;13.90;99.90;;;;;;6159203;23;20090;-88
2022/10/31 16:44:24;;;;;;;29.67;17.20;;;14.50;99.90;;;;;;6156753;23;20016;-86
2022/10/31 16:47:17;;;;;;;27.73;15.90;;;15.10;99.90;;;;;;6184138;23;20017;-87
2022/10/31 16:49:49;;;;;;;28.52;17.08;;;13.80;99.90;;;;;;6157513;23;20144;-88
2022/10/31 16:52:16;;;;;;;30.92;17.38;;;13.80;99.90;;;;;;6182908;23;20421;-87
2022/10/31 16:54:45;;;;;;;30.50;17.00;;;14.10;99.90;;;;;;6184585;23;20020;-88
2022/10/31 16:57:20;;;;;;;28.88;17.73;;;14.80;99.90;;;;;;6183510;23;20108;-87
2022/10/31 16:59:49;;;;;;;32.10;18.77;;;15.00;99.90;;;;;;6183705;23;20028;-87
2022/10/31 17:02:18;;;;;;;33.80;18.27;;;14.30;99.90;;;;;;6211478;22;20349;-87
2022/10/31 17:04:44;;;;;;;30.23;18.95;;;14.90;99.90;;;;;;6188779;23;20012;-87
2022/10/31 17:07:16;;;;;;;33.55;19.05;;;14.70;99.90;;;;;;6188837;23;20163;-87
2022/10/31 17:09:44;;;;;;;32.10;19.48;;;13.90;99.90;;;;;;6189722;23;20028;-87
2022/10/31 17:12:21;;;;;;;31.90;19.42;;;14.50;99.90;;;;;;6214480;23;20021;-87
2022/10/31 17:14:51;;;;;;;38.20;20.05;;;14.70;99.90;;;;;;6189414;23;20021;-87
2022/10/31 17:17:16;;;;;;;35.45;20.10;;;14.60;99.90;;;;;;6190227;23;20027;-87
2022/10/31 17:19:48;;;;;;;37.28;21.17;;;15.00;99.90;;;;;;6189724;23;20445;-88
2022/10/31 17:22:23;;;;;;;34.78;20.17;;;14.80;99.90;;;;;;6188493;23;20017;-87
2022/10/31 17:24:58;;;;;;;37.35;20.73;;;14.60;99.90;;;;;;6188941;23;20419;-87
2022/10/31 17:27:23;;;;;;;34.90;20.40;;;14.80;99.90;;;;;;6188668;23;20024;-87
2022/10/31 17:30:00;;;;;;;37.80;20.85;;;14.80;99.90;;;;;;6189463;23;20103;-88
2022/10/31 17:32:28;;;;;;;36.80;19.95;;;14.10;99.90;;;;;;6212642;23;20020;-87
2022/10/31 17:34:57;;;;;;;34.60;20.45;;;14.90;99.90;;;;;;6187805;23;20013;-87
2022/10/31 17:37:28;;;;;;;35.00;20.17;;;13.90;99.90;;;;;;6214679;23;20052;-87
2022/10/31 17:39:59;;;;;;;35.53;20.65;;;14.30;99.90;;;;;;6187782;23;20008;-88
2022/10/31 17:42:28;;;;;;;35.22;20.13;;;13.80;99.90;;;;;;6213941;23;20012;-88
2022/10/31 17:44:57;;;;;;;37.17;21.15;;;14.50;99.90;;;;;;6187491;23;20017;-87
2022/10/31 17:47:25;;;;;;;33.78;20.98;;;14.50;99.90;;;;;;6186437;23;20086;-87
